Time;durP1;ratioP1;P1;durP2;ratioP2;P2;SDS_P1;SDS_P2;PMS_P1;PMS_P2;Temp;Humidity;BMP_temperature;BMP_pressure;BME280_temperature;BME280_humidity;BME280_pressure;Samples;Min_cycle;Max_cycle;Signal;HPM_P1;HPM_P2
2022/10/31 00:01:01;;;;;;;5.18;3.63;;;14.80;99.90;;;;;;5032933;28;20308;-75
2022/10/31 00:03:29;;;;;;;7.15;3.70;;;14.90;99.90;;;;;;5034831;28;20229;-75
2022/10/31 00:05:57;;;;;;;5.28;3.85;;;14.80;99.90;;;;;;5033953;28;20170;-76
2022/10/31 00:08:30;;;;;;;6.60;3.65;;;14.80;99.90;;;;;;5034480;28;20264;-76
2022/10/31 00:10:57;;;;;;;5.60;3.55;;;14.90;99.90;;;;;;5034975;28;20174;-75
2022/10/31 00:13:23;;;;;;;4.85;3.40;;;14.80;99.90;;;;;;5034569;28;20182;-75
2022/10/31 00:15:49;;;;;;;8.23;4.00;;;14.90;99.90;;;;;;5032285;28;20292;-75
2022/10/31 00:18:15;;;;;;;6.97;3.63;;;14.80;99.90;;;;;;5034826;28;20184;-76
2022/10/31 00:20:40;;;;;;;5.05;3.40;;;14.80;99.90;;;;;;5031822;28;20198;-75
2022/10/31 00:23:07;;;;;;;6.25;3.47;;;14.80;99.90;;;;;;5031918;28;20198;-76
2022/10/31 00:25:35;;;;;;;6.78;3.50;;;14.80;99.90;;;;;;5017171;28;20178;-75
2022/10/31 00:28:01;;;;;;;6.18;3.42;;;14.80;99.90;;;;;;5036633;28;20214;-73
2022/10/31 00:30:29;;;;;;;5.43;3.53;;;14.70;99.90;;;;;;5031451;28;20229;-71
2022/10/31 00:32:57;;;;;;;5.55;3.58;;;14.70;99.90;;;;;;5035253;28;20236;-71
2022/10/31 00:35:22;;;;;;;6.25;3.85;;;14.70;99.90;;;;;;5029083;28;20217;-71
2022/10/31 00:37:48;;;;;;;5.35;3.80;;;14.70;99.90;;;;;;5019559;28;20178;-71
2022/10/31 00:40:14;;;;;;;4.85;3.30;;;14.70;99.90;;;;;;5023525;28;20183;-71
2022/10/31 00:42:43;;;;;;;7.13;4.07;;;14.70;99.90;;;;;;5027068;28;20202;-72
2022/10/31 00:45:09;;;;;;;5.43;3.45;;;14.70;99.90;;;;;;5025912;28;20174;-71
2022/10/31 00:47:37;;;;;;;6.60;3.92;;;14.70;99.90;;;;;;5027566;28;20182;-71
2022/10/31 00:50:06;;;;;;;4.80;3.38;;;14.70;99.90;;;;;;5032571;28;20178;-71
2022/10/31 00:52:34;;;;;;;5.93;3.70;;;14.70;99.90;;;;;;5028767;28;20185;-71
2022/10/31 00:55:00;;;;;;;6.07;3.60;;;14.70;99.90;;;;;;5030442;28;20264;-71
2022/10/31 00:57:30;;;;;;;4.57;3.47;;;14.60;99.90;;;;;;5031137;28;20240;-72
2022/10/31 00:59:56;;;;;;;5.15;3.38;;;14.70;99.90;;;;;;5029802;28;20198;-71
2022/10/31 01:02:21;;;;;;;4.60;3.55;;;14.70;99.90;;;;;;5030547;28;20209;-69
2022/10/31 01:04:47;;;;;;;6.82;3.63;;;14.70;99.90;;;;;;5031576;28;20194;-72
2022/10/31 01:07:15;;;;;;;6.07;3.60;;;14.70;99.90;;;;;;5048634;28;20190;-72
2022/10/31 01:09:43;;;;;;;4.78;3.20;;;14.70;99.90;;;;;;5033375;28;20182;-72
2022/10/31 01:12:08;;;;;;;4.82;3.33;;;14.70;99.90;;;;;;5027812;28;20214;-72
2022/10/31 01:14:34;;;;;;;8.48;3.50;;;14.70;99.90;;;;;;5034380;28;20181;-72
2022/10/31 01:17:00;;;;;;;4.85;3.38;;;14.60;99.90;;;;;;5029075;28;20181;-72
2022/10/31 01:19:25;;;;;;;4.05;3.42;;;14.60;99.90;;;;;;5032795;28;20205;-72
2022/10/31 01:21:56;;;;;;;5.63;3.70;;;14.60;99.90;;;;;;5036319;28;20205;-72
2022/10/31 01:24:24;;;;;;;6.38;3.92;;;14.60;99.90;;;;;;5036028;28;20202;-72
2022/10/31 01:26:50;;;;;;;8.40;3.63;;;14.60;99.90;;;;;;5052431;28;20189;-72
2022/10/31 01:29:15;;;;;;;4.45;3.22;;;14.50;99.90;;;;;;5036757;28;20190;-72
2022/10/31 01:31:41;;;;;;;4.88;3.80;;;14.50;99.90;;;;;;5033419;28;20603;-72
2022/10/31 01:34:09;;;;;;;7.70;3.75;;;14.50;99.90;;;;;;5037360;28;20241;-73
2022/10/31 01:36:40;;;;;;;5.55;3.80;;;14.50;99.90;;;;;;5026219;28;20285;-72
2022/10/31 01:39:12;;;;;;;6.15;3.65;;;14.50;99.90;;;;;;5036684;28;20185;-73
2022/10/31 01:41:42;;;;;;;7.03;3.50;;;14.40;99.90;;;;;;5036398;28;20254;-72
2022/10/31 01:44:16;;;;;;;5.93;3.85;;;14.50;99.90;;;;;;5037018;28;20242;-72
2022/10/31 01:46:59;;;;;;;5.93;3.53;;;14.40;99.90;;;;;;5034876;28;20222;-72
2022/10/31 01:49:31;;;;;;;6.45;3.45;;;14.50;99.90;;;;;;5032422;28;20186;-74
2022/10/31 01:52:03;;;;;;;5.22;3.47;;;14.50;99.90;;;;;;5036602;28;20174;-72
2022/10/31 01:54:36;;;;;;;5.45;3.13;;;14.40;99.90;;;;;;5035973;28;20194;-72
2022/10/31 01:57:04;;;;;;;4.68;3.58;;;14.40;99.90;;;;;;5036996;28;20257;-72
2022/10/31 01:59:33;;;;;;;8.32;3.72;;;14.40;99.90;;;;;;5031373;28;20265;-72
2022/10/31 02:01:59;;;;;;;6.88;3.80;;;14.40;99.90;;;;;;5034006;28;20293;-72
2022/10/31 02:04:25;;;;;;;4.25;3.13;;;14.40;99.90;;;;;;5034275;28;20204;-73
2022/10/31 02:06:58;;;;;;;4.75;3.40;;;14.40;99.90;;;;;;5032920;28;20184;-71
2022/10/31 02:09:27;;;;;;;5.60;3.45;;;14.50;99.90;;;;;;5026154;28;20194;-72
2022/10/31 02:11:56;;;;;;;5.20;3.60;;;14.50;99.90;;;;;;5032120;28;20174;-72
2022/10/31 02:14:25;;;;;;;4.80;3.10;;;14.50;99.90;;;;;;5042208;28;20178;-72
2022/10/31 02:16:51;;;;;;;4.65;3.30;;;14.50;99.90;;;;;;5030486;28;20221;-72
2022/10/31 02:19:28;;;;;;;7.32;3.00;;;14.50;99.90;;;;;;5028087;28;20265;-71
2022/10/31 02:22:09;;;;;;;4.55;3.00;;;14.50;99.90;;;;;;5033860;28;20257;-71
2022/10/31 02:24:56;;;;;;;6.90;3.28;;;14.50;99.90;;;;;;5032517;28;20182;-72
2022/10/31 02:27:44;;;;;;;5.70;3.08;;;14.50;99.90;;;;;;5026659;28;20248;-71
2022/10/31 02:30:20;;;;;;;3.60;2.78;;;14.60;99.90;;;;;;5046950;28;20178;-72
2022/10/31 02:33:10;;;;;;;6.20;3.60;;;14.60;99.90;;;;;;5023943;28;20188;-71
2022/10/31 02:35:54;;;;;;;4.95;3.30;;;14.50;99.90;;;;;;5044084;28;20201;-71
2022/10/31 02:38:43;;;;;;;4.38;3.03;;;14.50;99.90;;;;;;5030449;28;20189;-71
2022/10/31 02:41:32;;;;;;;4.60;3.20;;;14.50;99.90;;;;;;5030864;28;20209;-72
2022/10/31 02:44:22;;;;;;;6.03;3.13;;;14.50;99.90;;;;;;5033576;28;20177;-72
2022/10/31 02:47:10;;;;;;;4.28;2.90;;;14.50;99.90;;;;;;5022327;28;20189;-72
2022/10/31 02:49:42;;;;;;;5.35;2.80;;;14.50;99.90;;;;;;5024170;28;20190;-72
2022/10/31 02:52:21;;;;;;;7.45;3.40;;;14.50;99.90;;;;;;5047454;28;20239;-73
2022/10/31 02:54:47;;;;;;;4.68;3.05;;;14.40;99.90;;;;;;5024487;28;20240;-72
2022/10/31 02:57:15;;;;;;;6.85;3.40;;;14.40;99.90;;;;;;5032714;28;20209;-72
2022/10/31 02:59:51;;;;;;;6.50;3.20;;;14.40;99.90;;;;;;5032109;28;20273;-71
2022/10/31 03:02:28;;;;;;;5.38;3.78;;;14.40;99.90;;;;;;5050208;28;20193;-72
2022/10/31 03:05:10;;;;;;;4.32;3.10;;;14.40;99.90;;;;;;5031018;28;20194;-71
2022/10/31 03:07:48;;;;;;;4.20;2.92;;;14.40;99.90;;;;;;5028083;28;20190;-72
2022/10/31 03:10:31;;;;;;;5.28;3.22;;;14.40;99.90;;;;;;5031308;28;20209;-71
2022/10/31 03:13:09;;;;;;;4.00;3.22;;;14.40;99.90;;;;;;5046880;28;20177;-73
2022/10/31 03:15:48;;;;;;;5.18;3.40;;;14.40;99.90;;;;;;5032541;28;20273;-72
2022/10/31 03:18:34;;;;;;;5.07;3.38;;;14.40;99.90;;;;;;5034000;28;20193;-72
2022/10/31 03:21:04;;;;;;;5.30;3.22;;;14.40;99.90;;;;;;5030961;28;20240;-72
2022/10/31 03:23:32;;;;;;;5.63;3.17;;;14.40;99.90;;;;;;5035152;28;20178;-73
2022/10/31 03:26:00;;;;;;;5.55;3.33;;;14.40;99.90;;;;;;5034333;28;20198;-72
2022/10/31 03:28:38;;;;;;;6.70;3.17;;;14.30;99.90;;;;;;5032771;28;20193;-72
2022/10/31 03:31:05;;;;;;;7.15;3.22;;;14.30;99.90;;;;;;5026820;28;20355;-71
2022/10/31 03:33:35;;;;;;;4.40;2.95;;;14.30;99.90;;;;;;5045424;28;20347;-72
2022/10/31 03:36:04;;;;;;;6.57;3.28;;;14.30;99.90;;;;;;5034684;28;20174;-72
2022/10/31 03:38:33;;;;;;;4.40;3.13;;;14.30;99.90;;;;;;5034610;28;20214;-71
2022/10/31 03:41:03;;;;;;;4.30;2.90;;;14.30;99.90;;;;;;5034489;28;20256;-72
2022/10/31 03:43:37;;;;;;;4.25;3.17;;;14.30;99.90;;;;;;5034794;28;20224;-72
2022/10/31 03:46:07;;;;;;;6.18;3.20;;;14.30;99.90;;;;;;5051748;28;20204;-72
2022/10/31 03:48:33;;;;;;;6.93;3.50;;;14.20;99.90;;;;;;5034439;28;20263;-72
2022/10/31 03:51:26;;;;;;;5.82;3.60;;;14.20;99.90;;;;;;5035229;28;20178;-72
2022/10/31 03:53:59;;;;;;;6.50;3.22;;;14.20;99.90;;;;;;5035203;28;20260;-71
2022/10/31 03:56:36;;;;;;;5.45;3.30;;;14.20;99.90;;;;;;5035806;28;20158;-72
2022/10/31 03:59:10;;;;;;;8.25;3.67;;;14.20;99.90;;;;;;5031291;28;20182;-72
2022/10/31 04:01:43;;;;;;;5.38;3.25;;;14.20;99.90;;;;;;5034153;28;20208;-71
2022/10/31 04:04:09;;;;;;;6.20;3.53;;;14.20;99.90;;;;;;5037348;28;20188;-72
2022/10/31 04:06:40;;;;;;;5.97;3.42;;;14.20;99.90;;;;;;5024764;28;20240;-71
2022/10/31 04:09:09;;;;;;;4.88;3.42;;;14.20;99.90;;;;;;5033443;28;20210;-71
2022/10/31 04:11:43;;;;;;;5.30;3.60;;;14.20;99.90;;;;;;5031597;28;20201;-73
2022/10/31 04:14:09;;;;;;;4.28;3.33;;;14.20;99.90;;;;;;5026963;28;20178;-72
2022/10/31 04:16:38;;;;;;;4.88;3.67;;;14.20;99.90;;;;;;5029604;28;20314;-71
2022/10/31 04:19:04;;;;;;;6.45;3.55;;;14.20;99.90;;;;;;5035633;28;20183;-72
2022/10/31 04:21:30;;;;;;;6.25;3.65;;;14.20;99.90;;;;;;5029871;28;20289;-72
2022/10/31 04:23:56;;;;;;;7.43;3.92;;;14.10;99.90;;;;;;5044593;28;20201;-72
2022/10/31 04:26:22;;;;;;;6.30;4.20;;;14.10;99.90;;;;;;5043104;28;20175;-72
2022/10/31 04:28:48;;;;;;;7.78;3.63;;;14.10;99.90;;;;;;5027706;28;20193;-72
2022/10/31 04:31:14;;;;;;;12.43;8.93;;;14.10;99.90;;;;;;5029793;28;20178;-72
2022/10/31 04:33:40;;;;;;;9.18;6.47;;;14.10;99.90;;;;;;5027761;28;20325;-72
2022/10/31 04:36:08;;;;;;;8.52;4.85;;;14.10;99.90;;;;;;5030827;28;20284;-72
2022/10/31 04:38:34;;;;;;;6.30;4.05;;;14.10;99.90;;;;;;5029650;28;20270;-72
2022/10/31 04:41:02;;;;;;;6.80;5.15;;;14.00;99.90;;;;;;5038486;28;20277;-72
2022/10/31 04:43:27;;;;;;;10.88;7.05;;;14.00;99.90;;;;;;5034261;28;20213;-71
2022/10/31 04:45:53;;;;;;;7.88;6.25;;;14.00;99.90;;;;;;5035891;28;20174;-72
2022/10/31 04:48:18;;;;;;;8.20;5.45;;;14.00;99.90;;;;;;5038082;28;20197;-72
2022/10/31 04:50:44;;;;;;;5.65;4.40;;;14.00;99.90;;;;;;5037205;28;20304;-72
2022/10/31 04:53:10;;;;;;;7.75;4.57;;;13.90;99.90;;;;;;5034288;28;20171;-72
2022/10/31 04:55:36;;;;;;;7.35;4.20;;;13.90;99.90;;;;;;5034659;28;20182;-72
2022/10/31 04:58:02;;;;;;;6.05;3.92;;;13.90;99.90;;;;;;5037057;28;20205;-73
2022/10/31 05:00:30;;;;;;;5.95;4.38;;;13.90;99.90;;;;;;5032903;28;20182;-72
2022/10/31 05:02:57;;;;;;;61.55;40.42;;;13.80;99.90;;;;;;5032736;28;20284;-72
2022/10/31 05:05:28;;;;;;;19.23;11.88;;;13.80;99.90;;;;;;5032026;28;20194;-72
2022/10/31 05:07:57;;;;;;;12.73;8.15;;;13.80;99.90;;;;;;5034225;28;20175;-72
2022/10/31 05:10:26;;;;;;;9.38;6.53;;;13.80;99.90;;;;;;5033763;28;20183;-73
2022/10/31 05:12:56;;;;;;;9.38;5.25;;;13.70;99.90;;;;;;5049350;28;20268;-73
2022/10/31 05:15:25;;;;;;;6.47;4.70;;;13.60;99.90;;;;;;5023629;28;20179;-73
2022/10/31 05:17:52;;;;;;;6.65;4.03;;;13.70;99.90;;;;;;5029770;28;20174;-71
2022/10/31 05:20:20;;;;;;;5.63;3.63;;;13.60;99.90;;;;;;5034527;28;20204;-72
2022/10/31 05:22:49;;;;;;;7.18;4.18;;;13.50;99.90;;;;;;5034831;28;20209;-72
2022/10/31 05:25:16;;;;;;;5.22;4.10;;;13.50;99.90;;;;;;5033270;28;20195;-72
2022/10/31 05:27:47;;;;;;;6.88;4.88;;;13.50;99.90;;;;;;5022899;28;20190;-72
2022/10/31 05:30:16;;;;;;;6.93;4.53;;;13.50;99.90;;;;;;5030624;28;20182;-72
2022/10/31 05:32:46;;;;;;;7.07;4.45;;;13.40;99.90;;;;;;5036359;28;20194;-71
2022/10/31 05:35:19;;;;;;;5.05;3.90;;;13.40;99.90;;;;;;5017750;28;20178;-72
2022/10/31 05:37:44;;;;;;;5.53;3.38;;;13.40;99.90;;;;;;5017937;28;20163;-71
2022/10/31 05:40:12;;;;;;;5.43;3.28;;;13.30;99.90;;;;;;5033298;28;20201;-71
2022/10/31 05:42:42;;;;;;;4.63;3.28;;;13.40;99.90;;;;;;5037071;28;20209;-71
2022/10/31 05:45:09;;;;;;;4.47;3.17;;;13.30;99.90;;;;;;5037025;28;20181;-73
2022/10/31 05:47:35;;;;;;;5.43;3.42;;;13.30;99.90;;;;;;5036856;28;20174;-71
2022/10/31 05:50:01;;;;;;;6.05;3.40;;;13.30;99.90;;;;;;5036283;28;20174;-71
2022/10/31 05:52:31;;;;;;;6.32;3.50;;;13.30;99.90;;;;;;5053080;28;20292;-71
2022/10/31 05:54:56;;;;;;;6.20;3.47;;;13.30;99.90;;;;;;5036442;28;20182;-71
2022/10/31 05:57:27;;;;;;;5.82;3.38;;;13.30;99.90;;;;;;5042234;28;20181;-72
2022/10/31 05:59:55;;;;;;;5.72;3.45;;;13.30;99.90;;;;;;5041048;28;20209;-72
2022/10/31 06:02:21;;;;;;;6.18;3.25;;;13.30;99.90;;;;;;5032040;28;20293;-71
2022/10/31 06:04:49;;;;;;;4.70;3.28;;;13.30;99.90;;;;;;5034758;28;20241;-73
2022/10/31 06:07:14;;;;;;;4.82;3.33;;;13.30;99.90;;;;;;5033526;28;20193;-72
2022/10/31 06:09:40;;;;;;;5.97;3.53;;;13.30;99.90;;;;;;5031895;28;20479;-73
2022/10/31 06:12:08;;;;;;;5.55;3.20;;;13.30;99.90;;;;;;5032771;28;20208;-71
2022/10/31 06:14:33;;;;;;;5.38;3.63;;;13.30;99.90;;;;;;5033427;28;20193;-73
2022/10/31 06:16:59;;;;;;;5.18;3.22;;;13.30;99.90;;;;;;5025901;28;20261;-71
2022/10/31 06:19:25;;;;;;;6.70;3.80;;;13.30;99.90;;;;;;5036608;28;20213;-72
2022/10/31 06:21:50;;;;;;;5.30;3.42;;;13.30;99.90;;;;;;5037629;28;20206;-72
2022/10/31 06:24:18;;;;;;;7.20;3.92;;;13.30;99.90;;;;;;5033674;28;20186;-73
2022/10/31 06:26:46;;;;;;;5.47;3.80;;;13.30;99.90;;;;;;5034222;28;20198;-71
2022/10/31 06:29:12;;;;;;;6.07;3.95;;;13.20;99.90;;;;;;5036189;28;20209;-72
2022/10/31 06:31:37;;;;;;;6.40;3.95;;;13.20;99.90;;;;;;5035904;28;20173;-73
2022/10/31 06:34:03;;;;;;;6.28;3.67;;;13.30;99.90;;;;;;5034976;28;20183;-72
2022/10/31 06:36:28;;;;;;;6.68;4.70;;;13.30;99.90;;;;;;5035189;28;20229;-72
2022/10/31 06:38:54;;;;;;;8.40;4.10;;;13.30;99.90;;;;;;5032567;28;20266;-73
2022/10/31 06:41:20;;;;;;;5.55;3.67;;;13.20;99.90;;;;;;5035158;28;20216;-72
2022/10/31 06:43:48;;;;;;;7.63;4.35;;;13.20;99.90;;;;;;5051775;28;20190;-73
2022/10/31 06:46:18;;;;;;;5.38;3.80;;;13.20;99.90;;;;;;5035497;28;20241;-72
2022/10/31 06:48:49;;;;;;;6.53;3.88;;;13.20;99.90;;;;;;5030132;28;20234;-72
2022/10/31 06:51:16;;;;;;;6.03;4.05;;;13.30;99.90;;;;;;5052428;28;20261;-72
2022/10/31 06:53:42;;;;;;;5.93;3.85;;;13.30;99.90;;;;;;5052548;28;20246;-72
2022/10/31 06:56:08;;;;;;;6.78;4.25;;;13.30;99.90;;;;;;5046380;28;20175;-73
2022/10/31 06:58:38;;;;;;;5.82;4.18;;;13.30;99.90;;;;;;5020978;28;20190;-73
2022/10/31 07:01:06;;;;;;;6.43;4.00;;;13.40;99.90;;;;;;5051574;28;20525;-72
2022/10/31 07:03:34;;;;;;;8.05;4.35;;;13.40;99.90;;;;;;5034636;28;20381;-72
2022/10/31 07:06:00;;;;;;;6.60;4.35;;;13.40;99.90;;;;;;5048461;28;20214;-71
2022/10/31 07:08:26;;;;;;;8.68;4.30;;;13.50;99.90;;;;;;5035394;28;20174;-71
2022/10/31 07:10:56;;;;;;;5.85;4.00;;;13.50;99.90;;;;;;5034512;28;20170;-71
2022/10/31 07:13:25;;;;;;;8.15;4.05;;;13.60;99.90;;;;;;5027418;28;20459;-72
2022/10/31 07:15:55;;;;;;;7.70;4.78;;;13.60;99.90;;;;;;5048702;28;20175;-71
2022/10/31 07:18:21;;;;;;;6.25;3.97;;;13.70;99.90;;;;;;5034187;28;20406;-72
2022/10/31 07:20:50;;;;;;;7.95;4.40;;;13.70;99.90;;;;;;5035063;28;20181;-72
2022/10/31 07:23:17;;;;;;;7.43;4.40;;;13.70;99.90;;;;;;5032697;28;20178;-72
2022/10/31 07:25:48;;;;;;;8.27;4.05;;;13.70;99.90;;;;;;5033878;28;20192;-72
2022/10/31 07:28:15;;;;;;;6.85;4.18;;;13.80;99.90;;;;;;5046250;28;20194;-72
2022/10/31 07:30:41;;;;;;;7.68;4.05;;;13.80;99.90;;;;;;5015736;28;20213;-73
2022/10/31 07:33:09;;;;;;;5.88;3.95;;;13.80;99.90;;;;;;5031627;28;20175;-72
2022/10/31 07:35:35;;;;;;;8.77;4.50;;;13.90;99.90;;;;;;5029677;28;20178;-72
2022/10/31 07:38:13;;;;;;;7.20;4.38;;;13.90;99.90;;;;;;5035174;28;20168;-72
2022/10/31 07:40:39;;;;;;;5.72;4.25;;;13.90;99.90;;;;;;5033501;28;20181;-73
2022/10/31 07:43:05;;;;;;;8.23;4.80;;;14.00;99.90;;;;;;5034753;28;20204;-74
2022/10/31 07:45:31;;;;;;;7.97;4.40;;;14.00;99.90;;;;;;5027980;28;20261;-72
2022/10/31 07:47:56;;;;;;;7.97;4.68;;;14.00;99.90;;;;;;5029727;28;20177;-73
2022/10/31 07:50:30;;;;;;;8.27;4.10;;;14.00;99.90;;;;;;5034675;28;20197;-71
2022/10/31 07:53:05;;;;;;;6.53;4.05;;;14.10;99.90;;;;;;5034705;28;20162;-73
2022/10/31 07:55:31;;;;;;;8.18;4.95;;;14.10;99.90;;;;;;5031327;28;20189;-72
2022/10/31 07:58:03;;;;;;;8.20;4.70;;;14.10;99.90;;;;;;5025619;28;20190;-72
2022/10/31 08:00:29;;;;;;;5.68;3.80;;;14.20;99.90;;;;;;5034559;28;20210;-73
2022/10/31 08:03:00;;;;;;;6.72;4.20;;;14.20;99.90;;;;;;5033289;28;20221;-72
2022/10/31 08:05:26;;;;;;;6.18;4.43;;;14.30;99.90;;;;;;5034717;28;20190;-73
2022/10/31 08:07:54;;;;;;;6.88;4.45;;;14.30;99.90;;;;;;5051463;28;20174;-73
2022/10/31 08:10:23;;;;;;;7.72;4.35;;;14.30;99.90;;;;;;5034228;28;20205;-72
2022/10/31 08:13:02;;;;;;;5.30;3.95;;;14.40;99.90;;;;;;5030760;28;20224;-73
2022/10/31 08:15:27;;;;;;;6.60;3.92;;;14.40;99.90;;;;;;5015196;28;20170;-73
2022/10/31 08:17:53;;;;;;;6.95;4.20;;;14.50;99.90;;;;;;5014547;28;20247;-73
2022/10/31 08:20:20;;;;;;;7.97;4.20;;;14.50;99.90;;;;;;5019370;28;20509;-73
2022/10/31 08:23:05;;;;;;;8.13;4.93;;;14.50;99.90;;;;;;5035023;28;20182;-72
2022/10/31 08:25:32;;;;;;;7.10;4.22;;;14.60;99.90;;;;;;5039678;28;20273;-73
2022/10/31 08:27:58;;;;;;;6.40;4.40;;;14.70;99.90;;;;;;5017651;28;20197;-72
2022/10/31 08:30:30;;;;;;;6.57;4.30;;;14.70;99.90;;;;;;5030535;28;20178;-73
2022/10/31 08:33:05;;;;;;;5.93;3.95;;;14.70;99.90;;;;;;5034308;28;20181;-73
2022/10/31 08:35:32;;;;;;;6.05;3.90;;;14.80;99.90;;;;;;5030065;28;20303;-73
2022/10/31 08:37:58;;;;;;;8.27;4.30;;;14.90;99.90;;;;;;5033080;28;20205;-73
2022/10/31 08:40:25;;;;;;;6.57;4.50;;;14.90;99.90;;;;;;5031424;28;20179;-72
2022/10/31 08:43:03;;;;;;;8.48;5.03;;;14.90;99.90;;;;;;5034004;28;20287;-72
2022/10/31 08:45:30;;;;;;;7.43;4.72;;;15.00;99.90;;;;;;5029835;28;20174;-72
2022/10/31 08:48:00;;;;;;;8.52;5.35;;;15.10;99.90;;;;;;5032324;28;20170;-72
2022/10/31 08:50:27;;;;;;;9.27;5.20;;;15.10;99.90;;;;;;5017856;28;20293;-72
2022/10/31 08:52:52;;;;;;;7.75;4.95;;;15.20;99.90;;;;;;5032224;28;20224;-72
2022/10/31 08:55:20;;;;;;;9.18;5.43;;;15.20;99.90;;;;;;5033375;28;20234;-73
2022/10/31 08:57:46;;;;;;;8.05;4.85;;;15.20;99.90;;;;;;5024011;28;20230;-73
2022/10/31 09:00:14;;;;;;;8.13;5.25;;;15.20;99.90;;;;;;5034051;28;20169;-71
2022/10/31 09:02:39;;;;;;;7.53;4.93;;;15.30;99.90;;;;;;5027620;28;20197;-72
2022/10/31 09:05:05;;;;;;;12.43;5.13;;;15.30;99.90;;;;;;5040526;28;20194;-73
2022/10/31 09:07:33;;;;;;;9.25;5.32;;;15.40;99.90;;;;;;5033463;28;20182;-73
2022/10/31 09:09:59;;;;;;;6.53;4.72;;;15.40;99.90;;;;;;5029535;28;20177;-72
2022/10/31 09:12:27;;;;;;;7.93;4.35;;;15.50;99.90;;;;;;5032654;28;20264;-73
2022/10/31 09:14:52;;;;;;;6.57;4.70;;;15.60;99.90;;;;;;5030805;28;20233;-73
2022/10/31 09:17:18;;;;;;;8.70;4.80;;;15.70;99.90;;;;;;5050179;28;20197;-73
2022/10/31 09:19:44;;;;;;;6.93;5.13;;;15.80;99.90;;;;;;5032999;28;20212;-73
2022/10/31 09:22:12;;;;;;;8.55;4.78;;;15.90;99.90;;;;;;5033945;28;20247;-73
2022/10/31 09:24:37;;;;;;;9.05;5.18;;;16.00;99.90;;;;;;5033992;28;20223;-73
2022/10/31 09:27:03;;;;;;;7.97;4.82;;;16.20;99.90;;;;;;5037516;28;20276;-72
2022/10/31 09:29:31;;;;;;;7.45;4.95;;;16.40;99.90;;;;;;5038336;28;20218;-72
2022/10/31 09:31:59;;;;;;;9.43;5.10;;;16.60;99.90;;;;;;5037213;28;20202;-73
2022/10/31 09:34:26;;;;;;;9.50;5.45;;;16.90;99.90;;;;;;5037662;28;20167;-72
2022/10/31 09:36:54;;;;;;;8.23;5.15;;;17.20;99.90;;;;;;5037424;28;20174;-73
2022/10/31 09:39:20;;;;;;;8.75;4.80;;;17.50;99.90;;;;;;5037044;28;20231;-74
2022/10/31 09:42:13;;;;;;;6.95;4.63;;;17.70;99.90;;;;;;5037139;28;20284;-73
2022/10/31 09:44:42;;;;;;;6.40;4.50;;;18.00;99.90;;;;;;5033353;28;20201;-73
2022/10/31 09:47:18;;;;;;;7.05;4.50;;;18.30;99.90;;;;;;5017947;28;20163;-73
2022/10/31 09:50:13;;;;;;;8.00;4.35;;;18.60;99.90;;;;;;5033853;28;20258;-72
2022/10/31 09:52:47;;;;;;;6.10;4.43;;;18.90;99.90;;;;;;4998694;28;20179;-73
2022/10/31 09:55:17;;;;;;;5.47;3.97;;;19.20;99.90;;;;;;5017331;28;20171;-74
2022/10/31 09:57:45;;;;;;;6.13;4.25;;;19.30;99.90;;;;;;5017382;28;20287;-73
2022/10/31 10:00:19;;;;;;;6.10;4.05;;;19.50;99.90;;;;;;5036076;28;20205;-73
2022/10/31 10:02:54;;;;;;;8.02;4.45;;;19.50;99.90;;;;;;5031607;28;20209;-73
2022/10/31 10:05:37;;;;;;;6.03;4.30;;;19.60;99.90;;;;;;5036975;28;20170;-74
2022/10/31 10:08:23;;;;;;;9.15;4.88;;;19.70;99.90;;;;;;5020638;28;20236;-74
2022/10/31 10:11:03;;;;;;;5.70;4.28;;;19.70;99.90;;;;;;5036657;28;20197;-72
2022/10/31 10:13:37;;;;;;;6.65;4.68;;;19.70;99.90;;;;;;5052898;28;20193;-74
2022/10/31 10:16:03;;;;;;;7.88;4.13;;;19.70;99.90;;;;;;5036548;28;20222;-73
2022/10/31 10:18:53;;;;;;;6.88;3.70;;;19.60;99.90;;;;;;5033443;28;20186;-73
2022/10/31 10:21:42;;;;;;;7.30;4.32;;;19.60;99.90;;;;;;5047232;28;20218;-73
2022/10/31 10:24:55;;;;;;;10.73;4.40;;;19.60;99.90;;;;;;5049245;28;20170;-72
2022/10/31 10:27:39;;;;;;;7.03;4.90;;;19.50;99.90;;;;;;5017807;28;20221;-73
2022/10/31 10:30:33;;;;;;;5.95;4.40;;;19.40;99.90;;;;;;5016905;28;20262;-74
2022/10/31 10:33:09;;;;;;;10.23;4.75;;;19.20;99.90;;;;;;5035166;28;20188;-73
2022/10/31 10:35:47;;;;;;;7.70;4.47;;;19.10;99.90;;;;;;5032086;28;20179;-73
2022/10/31 10:38:27;;;;;;;6.28;4.05;;;19.10;99.90;;;;;;5015982;28;20166;-73
2022/10/31 10:40:53;;;;;;;8.00;4.22;;;19.00;99.90;;;;;;5035715;28;20202;-74
2022/10/31 10:43:35;;;;;;;6.28;3.97;;;18.90;99.90;;;;;;5035187;28;20170;-73
2022/10/31 10:49:13;;;;;;;5.72;3.97;;;18.90;99.90;;;;;;5035554;28;20339;-73
2022/10/31 10:51:54;;;;;;;4.97;3.42;;;18.90;99.90;;;;;;5035608;28;20181;-72
2022/10/31 10:54:20;;;;;;;5.78;3.80;;;18.90;99.90;;;;;;5018380;28;20178;-72
2022/10/31 10:57:19;;;;;;;5.10;3.80;;;18.90;99.90;;;;;;5035517;28;20184;-72
2022/10/31 10:59:46;;;;;;;8.63;4.70;;;19.00;99.90;;;;;;5035669;28;20194;-74
2022/10/31 11:02:22;;;;;;;6.45;4.10;;;19.00;99.90;;;;;;5034557;28;20205;-73
2022/10/31 11:04:54;;;;;;;7.43;4.25;;;19.00;99.90;;;;;;5021483;28;20181;-73
2022/10/31 11:07:23;;;;;;;8.13;4.07;;;19.00;99.90;;;;;;5052208;28;20178;-74
2022/10/31 11:09:49;;;;;;;7.28;3.95;;;19.10;99.90;;;;;;5051620;28;20255;-73
2022/10/31 11:12:33;;;;;;;7.85;4.28;;;19.00;99.90;;;;;;5034294;28;20189;-73
2022/10/31 11:15:05;;;;;;;5.45;3.90;;;19.10;99.90;;;;;;5032381;28;20193;-74
2022/10/31 11:17:39;;;;;;;5.22;4.03;;;19.20;99.90;;;;;;5035063;28;20205;-74
2022/10/31 11:20:12;;;;;;;5.80;3.78;;;19.20;99.90;;;;;;5035902;28;20468;-73
2022/10/31 11:22:42;;;;;;;7.72;3.78;;;19.20;99.90;;;;;;5035214;28;20280;-73
2022/10/31 11:25:27;;;;;;;5.75;3.97;;;19.30;99.90;;;;;;5035384;28;20257;-73
2022/10/31 11:28:08;;;;;;;4.68;3.28;;;19.30;99.90;;;;;;5017339;28;20255;-72
2022/10/31 11:30:53;;;;;;;4.95;3.42;;;19.20;99.90;;;;;;5032177;28;20263;-72
2022/10/31 11:33:32;;;;;;;5.40;3.67;;;19.30;99.90;;;;;;5048876;28;20170;-73
2022/10/31 11:36:00;;;;;;;6.20;3.42;;;19.20;99.90;;;;;;5035239;28;20600;-73
2022/10/31 11:38:39;;;;;;;5.03;3.40;;;19.30;99.90;;;;;;5034615;28;20177;-73
2022/10/31 11:41:12;;;;;;;5.50;3.53;;;19.30;99.90;;;;;;5035101;28;20205;-73
2022/10/31 11:43:40;;;;;;;6.38;3.78;;;19.30;99.90;;;;;;5037412;28;20206;-73
2022/10/31 11:46:17;;;;;;;5.70;3.80;;;19.30;99.90;;;;;;5035145;28;20205;-73
2022/10/31 11:48:48;;;;;;;5.15;3.40;;;19.30;99.90;;;;;;5030991;28;20171;-72
2022/10/31 11:51:23;;;;;;;5.93;3.47;;;19.30;99.90;;;;;;5015425;28;20211;-73
2022/10/31 11:53:54;;;;;;;5.30;3.80;;;19.30;99.90;;;;;;5028725;28;20178;-74
2022/10/31 11:56:20;;;;;;;5.45;3.60;;;19.40;99.90;;;;;;5032745;28;20178;-74
2022/10/31 11:59:22;;;;;;;5.97;3.90;;;19.40;99.90;;;;;;5027543;28;20225;-74
2022/10/31 12:01:50;;;;;;;7.28;3.42;;;19.40;99.90;;;;;;5029806;28;20194;-74
2022/10/31 12:04:16;;;;;;;5.22;3.47;;;19.40;99.90;;;;;;5025497;28;20195;-74
2022/10/31 12:06:46;;;;;;;5.97;3.70;;;19.40;99.90;;;;;;5033828;28;20174;-73
2022/10/31 12:09:33;;;;;;;7.07;3.55;;;19.50;99.90;;;;;;5051085;28;20178;-72
2022/10/31 12:12:34;;;;;;;6.07;3.75;;;19.50;99.90;;;;;;5033379;28;20221;-71
2022/10/31 12:15:21;;;;;;;6.80;3.40;;;19.60;99.90;;;;;;5033522;28;20174;-72
2022/10/31 12:17:55;;;;;;;5.72;3.60;;;19.60;99.90;;;;;;5030874;28;20265;-72
2022/10/31 12:21:04;;;;;;;7.68;3.67;;;19.70;99.90;;;;;;5034431;28;20173;-73
2022/10/31 12:23:53;;;;;;;4.55;3.40;;;19.70;99.90;;;;;;4977700;28;20182;-74
2022/10/31 12:26:46;;;;;;;4.90;3.30;;;19.80;99.90;;;;;;5007940;28;20217;-73
2022/10/31 12:29:25;;;;;;;6.32;3.53;;;19.90;99.90;;;;;;5028658;28;20194;-73
2022/10/31 12:32:12;;;;;;;9.05;4.25;;;19.90;99.90;;;;;;5028367;28;20334;-74
2022/10/31 12:35:10;;;;;;;7.50;3.90;;;19.90;99.90;;;;;;5014972;28;20171;-73
2022/10/31 12:38:13;;;;;;;7.35;4.40;;;20.00;99.90;;;;;;5034258;28;20272;-73
2022/10/31 12:41:20;;;;;;;5.70;3.40;;;20.00;99.90;;;;;;5022940;28;20181;-73
2022/10/31 12:44:06;;;;;;;5.20;3.15;;;20.00;99.90;;;;;;5015702;28;20186;-73
2022/10/31 12:46:54;;;;;;;5.28;3.13;;;19.90;99.90;;;;;;5022200;28;20207;-73
2022/10/31 12:49:38;;;;;;;5.05;3.25;;;19.90;99.90;;;;;;5030843;28;20216;-75
2022/10/31 12:52:07;;;;;;;5.20;3.45;;;19.90;99.90;;;;;;5022200;28;20175;-75
2022/10/31 12:54:45;;;;;;;4.05;3.08;;;19.80;99.90;;;;;;5014558;28;20167;-73
2022/10/31 12:57:39;;;;;;;7.85;3.60;;;19.80;99.90;;;;;;5017889;28;20184;-73
2022/10/31 13:00:11;;;;;;;4.95;2.92;;;19.80;99.90;;;;;;5023426;28;20199;-73
2022/10/31 13:02:45;;;;;;;6.05;3.08;;;19.70;99.90;;;;;;5037840;28;20365;-74
2022/10/31 13:05:14;;;;;;;4.65;3.33;;;19.70;99.90;;;;;;5018773;28;20262;-74
2022/10/31 13:07:43;;;;;;;6.32;3.15;;;19.70;99.90;;;;;;5021929;28;20190;-74
2022/10/31 13:10:21;;;;;;;6.63;3.60;;;19.70;99.90;;;;;;5049982;28;20174;-72
2022/10/31 13:12:53;;;;;;;7.60;3.65;;;19.60;99.90;;;;;;5034128;28;20183;-72